Time;durP1;ratioP1;P1;durP2;ratioP2;P2;SDS_P1;SDS_P2;PMS_P1;PMS_P2;Temp;Humidity;BMP_temperature;BMP_pressure;BME280_temperature;BME280_humidity;BME280_pressure;Samples;Min_cycle;Max_cycle;Signal;HPM_P1;HPM_P2
2021/09/20 00:00:13;;;;;;;0.55;0.10;;;;;;;10.24;79.07;99315.90;1647932;85;21089;-82
2021/09/20 00:02:41;;;;;;;0.13;0.00;;;;;;;10.16;79.15;99310.82;1658627;85;21114;-81
2021/09/20 00:05:10;;;;;;;1.40;0.10;;;;;;;10.08;79.51;99312.69;1661535;85;21102;-80
2021/09/20 00:07:38;;;;;;;0.40;0.10;;;;;;;10.09;79.59;99313.49;1653540;85;21207;-81
2021/09/20 00:10:09;;;;;;;0.10;0.10;;;;;;;10.10;79.76;99295.17;1655685;85;21734;-82
2021/09/20 00:12:37;;;;;;;0.20;0.20;;;;;;;10.22;79.46;99310.78;1653606;85;21014;-82
2021/09/20 00:15:05;;;;;;;0.40;0.10;;;;;;;10.18;79.41;99307.43;1646797;86;21533;-82
2021/09/20 00:17:32;;;;;;;0.20;0.10;;;;;;;10.11;79.74;99302.95;1658800;86;21019;-81
2021/09/20 00:20:01;;;;;;;0.10;0.10;;;;;;;10.05;79.79;99303.77;1653217;86;21110;-81
2021/09/20 00:22:29;;;;;;;0.00;0.00;;;;;;;10.10;79.92;99301.83;1654229;84;21000;-81
2021/09/20 00:24:58;;;;;;;0.00;0.00;;;;;;;10.17;79.84;99305.29;1680915;85;21234;-80
2021/09/20 00:27:26;;;;;;;0.10;0.10;;;;;;;10.23;79.67;99297.78;1649520;84;21058;-79
2021/09/20 00:29:53;;;;;;;0.25;0.10;;;;;;;10.27;79.60;99296.32;1664360;85;21552;-82
2021/09/20 00:32:22;;;;;;;0.30;0.10;;;;;;;10.24;79.68;99296.73;1669344;84;22196;-81
2021/09/20 00:34:50;;;;;;;0.10;0.00;;;;;;;10.20;79.80;99294.20;1652671;83;21346;-81
2021/09/20 00:37:18;;;;;;;0.65;0.20;;;;;;;10.21;79.88;99289.19;1641391;86;21128;-80
2021/09/20 00:39:45;;;;;;;0.30;0.20;;;;;;;10.27;79.79;99297.66;1645943;86;21308;-81
2021/09/20 00:42:12;;;;;;;2.30;0.20;;;;;;;10.30;79.92;99290.61;1643489;86;21044;-80
2021/09/20 00:44:39;;;;;;;0.15;0.00;;;;;;;10.31;79.80;99292.23;1643584;85;20998;-81
2021/09/20 00:47:07;;;;;;;0.10;0.10;;;;;;;10.27;80.02;99284.34;1646138;86;21252;-80
2021/09/20 00:49:35;;;;;;;0.00;0.00;;;;;;;10.22;80.29;99285.48;1648727;86;21054;-82
2021/09/20 00:52:01;;;;;;;2.00;0.37;;;;;;;10.22;80.27;99291.33;1646903;86;21599;-80
2021/09/20 00:54:27;;;;;;;;;;;;;;;10.24;79.97;99279.95;1652989;86;21026;-80
2021/09/20 00:56:54;;;;;;;0.17;0.10;;;;;;;10.28;79.43;99286.48;1648276;85;20463;-80
2021/09/20 00:59:22;;;;;;;0.08;0.08;;;;;;;10.20;79.38;99280.88;1651091;86;21692;-81
2021/09/20 01:01:49;;;;;;;0.33;0.00;;;;;;;10.14;80.06;99281.21;1633266;86;21148;-80
2021/09/20 01:04:16;;;;;;;0.53;0.30;;;;;;;10.13;80.06;99286.74;1637238;86;21241;-80
2021/09/20 01:06:42;;;;;;;0.10;0.10;;;;;;;10.06;80.39;99289.45;1637939;86;21617;-80
2021/09/20 01:09:08;;;;;;;0.08;0.00;;;;;;;10.00;80.57;99286.80;1644361;86;21026;-79
2021/09/20 01:11:35;;;;;;;0.68;0.10;;;;;;;9.99;81.02;99287.84;1647250;86;21053;-79
2021/09/20 01:14:01;;;;;;;;;;;;;;;10.02;80.79;99287.40;1653400;86;21576;-79
2021/09/20 01:16:29;;;;;;;0.10;0.05;;;;;;;10.03;80.89;99283.72;1651819;86;20172;-80
2021/09/20 01:18:55;;;;;;;;;;;;;;;10.00;81.43;99282.80;1650716;86;21034;-80
2021/09/20 01:21:22;;;;;;;2.03;0.10;;;;;;;9.98;81.38;99284.34;1642907;86;20173;-80
2021/09/20 01:23:49;;;;;;;0.93;0.20;;;;;;;9.91;81.96;99284.89;1650010;84;21041;-80
2021/09/20 01:26:15;;;;;;;;;;;;;;;9.87;82.14;99280.50;1652412;86;21041;-78
2021/09/20 01:28:43;;;;;;;0.40;0.30;;;;;;;9.87;82.46;99278.33;1651019;86;20146;-80
2021/09/20 01:31:09;;;;;;;0.00;0.00;;;;;;;9.85;82.53;99280.39;1644049;86;21097;-78
2021/09/20 01:33:36;;;;;;;;;;;;;;;9.83;82.92;99280.62;1649021;86;21622;-79
2021/09/20 01:36:04;;;;;;;1.20;0.23;;;;;;;9.78;82.95;99277.77;1643235;86;20161;-78
2021/09/20 01:38:30;;;;;;;0.10;0.10;;;;;;;9.63;83.69;99278.00;1652408;86;21033;-81
2021/09/20 01:40:56;;;;;;;1.00;0.08;;;;;;;9.62;84.02;99276.87;1644163;86;21179;-79
2021/09/20 01:43:23;;;;;;;0.20;0.00;;;;;;;9.71;83.87;99279.62;1650587;86;21098;-81
2021/09/20 01:45:50;;;;;;;0.00;0.00;;;;;;;9.78;83.68;99274.30;1649930;85;21609;-81
2021/09/20 01:48:18;;;;;;;0.82;0.05;;;;;;;9.82;83.55;99276.31;1658138;86;21083;-82
2021/09/20 01:50:46;;;;;;;0.10;0.10;;;;;;;9.82;83.37;99277.64;1644761;86;21577;-81
2021/09/20 01:53:14;;;;;;;0.13;0.00;;;;;;;9.76;83.18;99279.82;1639958;86;21180;-80
2021/09/20 01:55:43;;;;;;;0.10;0.00;;;;;;;9.70;83.52;99279.30;1627279;86;21046;-82
2021/09/20 01:58:11;;;;;;;0.10;0.10;;;;;;;9.76;83.57;99271.84;1646002;86;21365;-82
2021/09/20 02:00:43;;;;;;;0.30;0.10;;;;;;;9.83;83.62;99271.31;1640331;85;21093;-81
2021/09/20 02:03:07;;;;;;;0.10;0.00;;;;;;;9.84;83.29;99273.45;1642699;86;21679;-81
2021/09/20 02:05:34;;;;;;;0.10;0.10;;;;;;;9.81;83.30;99274.66;1650952;86;21826;-81
2021/09/20 02:08:02;;;;;;;0.10;0.10;;;;;;;9.78;83.44;99272.96;1645717;86;21536;-81
2021/09/20 02:10:30;;;;;;;1.77;0.10;;;;;;;9.71;83.60;99277.77;1636977;86;21057;-81
2021/09/20 02:12:56;;;;;;;0.33;0.03;;;;;;;9.67;83.87;99273.08;1643659;85;21081;-80
2021/09/20 02:15:23;;;;;;;;;;;;;;;9.70;83.66;99272.16;1647365;86;21583;-81
2021/09/20 02:17:50;;;;;;;0.98;0.10;;;;;;;9.70;83.60;99265.50;1641734;86;20141;-80
2021/09/20 02:20:17;;;;;;;0.17;0.10;;;;;;;9.65;83.95;99277.80;1642374;86;21066;-82
2021/09/20 02:22:43;;;;;;;0.10;0.10;;;;;;;9.64;84.21;99277.48;1636483;86;20967;-81
2021/09/20 02:25:10;;;;;;;;;;;;;;;9.64;84.21;99277.48;1637772;86;21050;-81
2021/09/20 02:27:39;;;;;;;0.50;0.00;;;;;;;9.60;84.54;99268.28;1640407;85;20120;-78
2021/09/20 02:30:08;;;;;;;0.30;0.00;;;;;;;9.53;84.87;99269.61;1650014;86;21209;-79
2021/09/20 02:32:35;;;;;;;0.10;0.10;;;;;;;9.59;84.76;99268.80;1636616;86;21570;-79
2021/09/20 02:35:05;;;;;;;0.20;0.00;;;;;;;9.66;83.93;99267.45;1638290;85;21057;-78
2021/09/20 02:37:32;;;;;;;1.20;0.00;;;;;;;9.68;83.83;99272.04;1646300;86;21005;-80
2021/09/20 02:39:59;;;;;;;0.10;0.00;;;;;;;9.70;84.12;99268.16;1645768;86;21724;-79
2021/09/20 02:42:27;;;;;;;0.00;0.00;;;;;;;9.72;84.13;99266.11;1654699;85;21125;-79
2021/09/20 02:44:54;;;;;;;0.00;0.00;;;;;;;9.73;84.19;99272.24;1646357;85;21037;-79
2021/09/20 02:47:20;;;;;;;0.35;0.10;;;;;;;9.63;84.50;99271.88;1647146;86;21050;-80
2021/09/20 02:49:47;;;;;;;0.03;0.00;;;;;;;9.59;85.12;99274.62;1632624;86;21082;-78
2021/09/20 02:52:14;;;;;;;0.00;0.00;;;;;;;9.59;84.93;99274.62;1650395;86;21163;-78
2021/09/20 02:54:40;;;;;;;;;;;;;;;9.62;85.10;99278.20;1648134;86;21062;-78
2021/09/20 02:57:06;;;;;;;0.20;0.20;;;;;;;9.25;85.33;99212.69;1639690;85;20321;-78
2021/09/20 02:59:34;;;;;;;0.10;0.10;;;;;;;9.55;85.33;99269.73;1649666;86;21572;-78
2021/09/20 03:02:00;;;;;;;;;;;;;;;9.53;85.36;99270.94;1650669;85;21031;-79
2021/09/20 03:04:27;;;;;;;0.80;0.20;;;;;;;9.54;85.21;99272.07;1636986;85;20149;-80
2021/09/20 03:06:53;;;;;;;;;;;;;;;9.49;85.65;99271.06;1646133;86;21085;-79
2021/09/20 03:09:19;;;;;;;1.70;0.10;;;;;;;9.49;85.50;99265.73;1643889;86;20217;-79
2021/09/20 03:11:46;;;;;;;0.13;0.10;;;;;;;9.52;85.94;99279.97;1652174;85;21568;-79
2021/09/20 03:14:13;;;;;;;0.07;0.07;;;;;;;9.52;85.94;99279.97;1647355;86;21117;-79
2021/09/20 03:16:41;;;;;;;0.10;0.10;;;;;;;9.54;85.94;99276.06;1645575;86;21917;-80
2021/09/20 03:19:08;;;;;;;0.20;0.00;;;;;;;9.54;86.21;99284.05;1644093;86;21090;-79
2021/09/20 03:21:35;;;;;;;0.10;0.10;;;;;;;9.60;86.04;99281.59;1643650;86;21571;-79
2021/09/20 03:24:04;;;;;;;0.23;0.10;;;;;;;9.64;85.64;99278.29;1644183;86;21569;-78
2021/09/20 03:26:31;;;;;;;0.20;0.10;;;;;;;9.67;85.60;99281.06;1653513;85;21536;-78
2021/09/20 03:28:57;;;;;;;0.10;0.10;;;;;;;9.69;85.57;99285.66;1650219;86;21533;-80
2021/09/20 03:31:23;;;;;;;;;;;;;;;9.70;85.65;99281.96;1651735;86;21102;-79
2021/09/20 03:33:52;;;;;;;0.10;0.10;;;;;;;9.70;85.54;99277.48;1637141;86;20219;-79
2021/09/20 03:36:18;;;;;;;0.00;0.00;;;;;;;9.70;85.74;99289.95;1641586;86;21509;-80
2021/09/20 03:38:44;;;;;;;0.60;0.10;;;;;;;9.71;85.77;99288.94;1650474;85;21046;-81
2021/09/20 03:41:10;;;;;;;0.00;0.00;;;;;;;9.70;85.77;99281.96;1640779;86;21121;-78
2021/09/20 03:43:37;;;;;;;0.05;0.00;;;;;;;9.73;85.90;99282.88;1637243;86;21120;-76
2021/09/20 03:46:03;;;;;;;0.23;0.00;;;;;;;8.79;85.50;99122.70;1645627;85;21295;-78
2021/09/20 03:48:30;;;;;;;0.00;0.00;;;;;;;9.86;85.68;99289.50;1650040;86;21546;-78
2021/09/20 03:50:58;;;;;;;0.50;0.10;;;;;;;9.89;85.50;99291.75;1645008;86;21138;-78
2021/09/20 03:53:24;;;;;;;0.37;0.00;;;;;;;9.91;85.28;99288.37;1645223;86;21018;-77
2021/09/20 03:55:53;;;;;;;0.10;0.10;;;;;;;9.86;85.38;99293.49;1642102;85;21082;-78
2021/09/20 03:58:19;;;;;;;0.20;0.10;;;;;;;9.81;85.55;99309.27;1639094;86;21719;-78
2021/09/20 04:00:46;;;;;;;0.42;0.00;;;;;;;9.82;85.58;99302.93;1637666;86;21077;-78
2021/09/20 04:03:12;;;;;;;1.62;0.10;;;;;;;9.92;85.44;99295.83;1635271;86;21097;-77
2021/09/20 04:05:38;;;;;;;0.10;0.10;;;;;;;10.00;85.24;99303.61;1647423;86;21107;-77
2021/09/20 04:08:04;;;;;;;2.12;0.20;;;;;;;10.05;84.90;99302.97;1649845;86;21047;-77
2021/09/20 04:10:31;;;;;;;0.20;0.10;;;;;;;10.06;84.84;99312.08;1647686;86;21041;-76
2021/09/20 04:12:57;;;;;;;0.40;0.10;;;;;;;10.02;84.86;99314.86;1647420;85;21014;-75
2021/09/20 04:15:23;;;;;;;0.10;0.10;;;;;;;9.99;84.82;99318.45;1633629;86;21070;-77
2021/09/20 04:17:50;;;;;;;1.50;0.27;;;;;;;10.00;84.79;99317.41;1649919;86;21031;-77
2021/09/20 04:20:17;;;;;;;0.13;0.10;;;;;;;10.04;84.73;99323.95;1642525;86;21058;-78
2021/09/20 04:22:44;;;;;;;1.40;0.10;;;;;;;10.04;84.51;99323.95;1626881;86;21160;-79
2021/09/20 04:25:11;;;;;;;0.50;0.20;;;;;;;10.07;84.81;99323.54;1644421;86;22101;-79
2021/09/20 04:27:37;;;;;;;0.50;0.30;;;;;;;10.13;84.87;99326.69;1635917;86;21039;-77
2021/09/20 04:30:07;;;;;;;1.05;0.37;;;;;;;10.12;84.75;99330.39;1633373;86;21642;-78
2021/09/20 04:32:35;;;;;;;0.33;0.10;;;;;;;10.07;84.82;99337.66;1649770;86;21514;-80
2021/09/20 04:35:02;;;;;;;0.10;0.10;;;;;;;10.10;84.62;99333.26;1650207;86;21085;-78
2021/09/20 04:37:28;;;;;;;0.20;0.10;;;;;;;10.18;84.32;99335.39;1642067;86;21047;-79
2021/09/20 04:39:54;;;;;;;0.40;0.20;;;;;;;10.22;84.32;99342.73;1645966;86;21087;-78
2021/09/20 04:42:20;;;;;;;0.30;0.10;;;;;;;10.30;84.37;99341.68;1636890;86;21586;-77
2021/09/20 04:44:46;;;;;;;3.62;0.53;;;;;;;10.31;83.74;99340.17;1636547;86;22095;-77
2021/09/20 04:47:13;;;;;;;0.63;0.10;;;;;;;10.24;83.66;99343.34;1649830;86;21137;-78
2021/09/20 04:49:40;;;;;;;0.20;0.20;;;;;;;10.18;83.86;99353.51;1643185;86;21121;-77
2021/09/20 04:52:08;;;;;;;1.43;0.20;;;;;;;10.18;83.96;99357.50;1635267;86;21054;-77
2021/09/20 04:54:34;;;;;;;;;;;;;;;10.24;83.94;99360.66;1640261;86;21171;-78
2021/09/20 04:57:00;;;;;;;0.30;0.20;;;;;;;10.26;83.78;99357.27;1653630;83;20460;-77
2021/09/20 04:59:27;;;;;;;0.90;0.10;;;;;;;10.23;84.08;99360.89;1650338;86;21593;-78
2021/09/20 05:01:55;;;;;;;0.20;0.10;;;;;;;10.25;84.24;99360.16;1643089;86;21112;-80
2021/09/20 05:04:22;;;;;;;0.95;0.20;;;;;;;10.26;84.35;99363.92;1651110;86;20995;-78
2021/09/20 05:06:50;;;;;;;1.33;0.20;;;;;;;10.27;84.62;99367.42;1635119;86;21661;-79
2021/09/20 05:09:17;;;;;;;0.40;0.40;;;;;;;10.25;84.62;99364.97;1646846;86;21057;-79
2021/09/20 05:11:43;;;;;;;0.10;0.10;;;;;;;10.28;84.05;99363.23;1646333;86;21098;-79
2021/09/20 05:14:11;;;;;;;0.67;0.20;;;;;;;10.29;83.81;99350.72;1649748;86;21145;-77
2021/09/20 05:16:37;;;;;;;0.20;0.20;;;;;;;10.41;83.68;99366.88;1649673;86;21110;-80
2021/09/20 05:19:04;;;;;;;0.68;0.15;;;;;;;10.41;83.72;99374.88;1646129;86;21357;-79
2021/09/20 05:21:31;;;;;;;0.42;0.20;;;;;;;10.36;83.98;99380.01;1649109;86;21649;-78
2021/09/20 05:23:57;;;;;;;;;;;;;;;10.34;84.24;99389.56;1645731;85;21119;-79
2021/09/20 05:26:23;;;;;;;2.10;0.40;;;;;;;10.41;84.20;99382.87;1642385;86;20189;-79
2021/09/20 05:28:49;;;;;;;0.68;0.30;;;;;;;10.39;84.11;99391.59;1645963;86;21049;-79
2021/09/20 05:31:17;;;;;;;5.20;1.10;;;;;;;10.41;84.04;99376.20;1635926;86;21117;-82
2021/09/20 05:33:43;;;;;;;;;;;;;;;10.39;84.08;99388.40;1646270;86;21596;-80
2021/09/20 05:36:11;;;;;;;;;;;;;;;10.32;84.14;99385.77;1648758;86;20274;-82
2021/09/20 05:38:38;;;;;;;0.50;0.23;;;;;;;10.21;84.59;99385.06;1645402;86;20258;-86
2021/09/20 05:41:04;;;;;;;0.33;0.33;;;;;;;10.19;84.79;99392.94;1649621;86;21181;-83
2021/09/20 05:43:33;;;;;;;0.20;0.20;;;;;;;10.24;84.63;99391.80;1646802;86;21097;-85
2021/09/20 05:45:59;;;;;;;0.20;0.20;;;;;;;10.27;84.54;99396.72;1636218;86;21169;-85
2021/09/20 05:48:26;;;;;;;4.37;0.40;;;;;;;10.30;84.54;99397.16;1638050;86;21116;-88
2021/09/20 05:50:55;;;;;;;0.35;0.25;;;;;;;10.35;84.74;99410.35;1633602;86;21039;-85
2021/09/20 05:53:22;;;;;;;0.77;0.40;;;;;;;10.32;84.68;99408.41;1637462;86;21248;-86
2021/09/20 05:55:51;;;;;;;0.33;0.30;;;;;;;10.36;84.85;99414.14;1633147;86;21031;-87
2021/09/20 05:58:17;;;;;;;0.40;0.30;;;;;;;10.46;84.84;99417.17;1619506;87;21077;-86
2021/09/20 06:00:44;;;;;;;0.28;0.28;;;;;;;10.51;84.15;99419.22;1643897;85;21269;-85
2021/09/20 06:03:11;;;;;;;0.20;0.20;;;;;;;10.30;84.19;99387.83;1640170;86;21671;-90
2021/09/20 06:05:41;;;;;;;1.60;0.30;;;;;;;10.56;84.47;99426.58;1651023;85;21551;-83
2021/09/20 06:08:09;;;;;;;0.40;0.40;;;;;;;10.57;84.51;99428.20;1643571;86;21616;-82
2021/09/20 06:10:37;;;;;;;2.00;0.50;;;;;;;10.58;84.33;99430.66;1649952;86;21543;-85
2021/09/20 06:13:07;;;;;;;1.50;0.20;;;;;;;10.64;83.94;99427.66;1637445;85;21166;-85
2021/09/20 06:15:35;;;;;;;0.30;0.30;;;;;;;10.71;83.57;99435.93;1636379;86;21049;-83
2021/09/20 06:18:06;;;;;;;0.40;0.30;;;;;;;10.76;83.13;99429.17;1647887;84;21062;-82
2021/09/20 06:20:34;;;;;;;1.37;0.30;;;;;;;10.73;82.88;99437.58;1644352;86;21022;-83
2021/09/20 06:23:04;;;;;;;0.75;0.50;;;;;;;10.66;82.91;99442.92;1654670;86;21116;-83
2021/09/20 06:25:30;;;;;;;0.37;0.37;;;;;;;10.63;83.42;99438.84;1647506;85;21022;-82
2021/09/20 06:27:56;;;;;;;0.33;0.30;;;;;;;10.71;83.69;99448.45;1636861;86;21050;-80
2021/09/20 06:30:22;;;;;;;0.55;0.40;;;;;;;10.80;83.23;99446.38;1650472;86;21113;-81
2021/09/20 06:32:48;;;;;;;1.92;0.28;;;;;;;10.85;83.00;99447.87;1633835;86;21069;-82
2021/09/20 06:35:15;;;;;;;1.12;0.47;;;;;;;10.89;82.74;99447.25;1630821;86;21157;-82
2021/09/20 06:37:41;;;;;;;0.35;0.35;;;;;;;10.88;82.71;99444.79;1647640;86;21019;-82
2021/09/20 06:40:09;;;;;;;2.15;0.50;;;;;;;10.82;82.96;99457.12;1642136;86;21136;-86
2021/09/20 06:42:36;;;;;;;1.27;0.50;;;;;;;10.81;83.43;99466.66;1638869;86;21173;-88
2021/09/20 06:45:02;;;;;;;;;;;;;;;10.88;83.22;99466.13;1642188;86;21101;-87
2021/09/20 06:47:29;;;;;;;0.55;0.50;;;;;;;10.93;83.03;99460.98;1634198;86;20140;-88
2021/09/20 06:49:55;;;;;;;1.12;0.30;;;;;;;10.94;82.84;99467.93;1651537;86;20997;-88
2021/09/20 06:52:21;;;;;;;1.67;0.35;;;;;;;10.95;82.71;99459.44;1649326;86;21169;-89
2021/09/20 06:54:47;;;;;;;1.62;1.50;;;;;;;10.94;82.53;99462.59;1642498;86;21066;-89
2021/09/20 06:57:14;;;;;;;1.65;0.90;;;;;;;10.89;82.77;99469.10;1644403;85;21033;-88
2021/09/20 06:59:40;;;;;;;0.90;0.90;;;;;;;10.93;82.87;99471.64;1642525;86;21041;-89
2021/09/20 07:02:08;;;;;;;2.72;0.50;;;;;;;11.01;82.85;99471.39;1646507;86;21022;-89
2021/09/20 07:04:34;;;;;;;1.37;1.27;;;;;;;11.08;82.67;99482.85;1646834;86;21716;-89
2021/09/20 07:07:00;;;;;;;1.45;0.60;;;;;;;11.15;82.41;99480.66;1639469;86;21025;-90
2021/09/20 07:09:26;;;;;;;0.98;0.62;;;;;;;11.18;82.21;99486.39;1634727;86;21161;-91
2021/09/20 07:11:53;;;;;;;1.62;0.60;;;;;;;11.10;82.50;99488.78;1645484;85;21153;-90
2021/09/20 07:14:19;;;;;;;1.32;0.42;;;;;;;11.11;83.10;99493.59;1634889;86;21074;-91
2021/09/20 07:16:45;;;;;;;0.93;0.68;;;;;;;11.16;82.96;99489.78;1637947;86;21128;-91
2021/09/20 07:19:11;;;;;;;0.68;0.33;;;;;;;11.24;82.39;99492.20;1650286;85;21035;-91
2021/09/20 07:21:39;;;;;;;1.50;0.47;;;;;;;11.27;82.15;99498.97;1650512;86;21042;-89
2021/09/20 07:24:05;;;;;;;1.10;1.00;;;;;;;11.27;82.17;99504.31;1644542;84;21063;-90
2021/09/20 07:26:32;;;;;;;4.35;3.37;;;;;;;11.28;82.41;99502.77;1647590;86;21659;-90
2021/09/20 07:28:59;;;;;;;2.08;1.87;;;;;;;11.24;82.59;99500.20;1647971;86;21640;-89
2021/09/20 07:31:26;;;;;;;0.93;0.90;;;;;;;11.17;82.95;99506.60;1654421;86;21122;-90
2021/09/20 07:33:56;;;;;;;0.70;0.62;;;;;;;11.14;83.01;99505.19;1650213;85;21018;-90
2021/09/20 07:36:22;;;;;;;0.70;0.70;;;;;;;11.16;82.80;99501.79;1650015;84;21085;-87
2021/09/20 07:38:49;;;;;;;0.95;0.50;;;;;;;11.21;83.05;99510.50;1643670;86;21072;-86
2021/09/20 07:44:00;;;;;;;2.20;1.00;;;;;;;11.28;83.04;99516.59;1805251;77;22821;-58
2021/09/20 07:46:26;;;;;;;0.53;0.50;;;;;;;11.14;83.55;99524.38;1733213;81;21124;-57
2021/09/20 07:48:53;;;;;;;0.90;0.60;;;;;;;11.14;83.75;99525.19;1733300;81;21061;-58
2021/09/20 07:51:21;;;;;;;1.52;0.88;;;;;;;11.16;83.34;99527.66;1738725;81;21148;-56
2021/09/20 07:53:47;;;;;;;3.15;0.65;;;;;;;11.20;83.38;99528.34;1730453;81;21060;-57
2021/09/20 07:56:15;;;;;;;0.50;0.40;;;;;;;11.23;83.35;99537.78;1705930;81;21069;-57
2021/09/20 07:58:41;;;;;;;;;;;;;;;11.27;83.29;99530.47;1709681;82;21009;-58
2021/09/20 08:01:07;;;;;;;1.42;0.62;;;;;;;11.26;83.41;99531.52;1699847;82;20483;-58
2021/09/20 08:03:33;;;;;;;0.80;0.80;;;;;;;11.17;84.03;99536.78;1692810;83;21048;-58
2021/09/20 08:06:00;;;;;;;1.22;0.75;;;;;;;11.17;83.85;99534.61;1702838;83;21106;-60
2021/09/20 08:08:26;;;;;;;0.88;0.47;;;;;;;11.17;84.46;99536.78;1699523;83;21037;-58
2021/09/20 08:10:53;;;;;;;0.42;0.42;;;;;;;11.20;84.45;99536.86;1692398;83;21074;-58
2021/09/20 08:13:20;;;;;;;1.05;0.40;;;;;;;11.23;84.60;99534.59;1729905;81;21001;-58
2021/09/20 08:15:48;;;;;;;2.87;0.75;;;;;;;11.24;84.65;99541.55;1732142;81;21049;-59
2021/09/20 08:18:17;;;;;;;1.55;1.32;;;;;;;11.21;84.87;99537.18;1734067;81;21117;-58
2021/09/20 08:20:46;;;;;;;0.75;0.50;;;;;;;11.25;85.20;99531.72;1727039;81;21053;-57
2021/09/20 08:23:14;;;;;;;2.80;0.70;;;;;;;11.31;84.29;99538.86;1741258;81;21021;-57
2021/09/20 08:25:41;;;;;;;1.10;1.00;;;;;;;11.31;84.12;99538.86;1721191;81;21005;-59
2021/09/20 08:28:08;;;;;;;1.85;0.72;;;;;;;11.36;84.64;99534.20;1711240;81;21102;-57
2021/09/20 08:30:36;;;;;;;0.57;0.53;;;;;;;11.44;84.66;99538.80;1728519;81;21062;-59
2021/09/20 08:33:03;;;;;;;2.02;0.57;;;;;;;11.51;84.27;99548.11;1729809;81;21077;-58
2021/09/20 08:35:30;;;;;;;1.02;0.33;;;;;;;11.55;83.96;99543.17;1731464;81;21058;-58
2021/09/20 08:37:58;;;;;;;1.45;0.47;;;;;;;11.56;83.19;99547.45;1728975;81;21068;-58
2021/09/20 08:40:27;;;;;;;0.37;0.37;;;;;;;11.58;82.82;99542.20;1672696;84;21083;-56
2021/09/20 08:42:55;;;;;;;1.47;0.70;;;;;;;11.64;82.75;99552.04;1674320;83;21089;-58
2021/09/20 08:45:23;;;;;;;0.72;0.72;;;;;;;11.70;82.67;99550.36;1678122;83;21089;-57
2021/09/20 08:47:52;;;;;;;0.50;0.50;;;;;;;11.78;82.71;99553.29;1685854;83;21050;-57
2021/09/20 08:50:24;;;;;;;1.55;0.60;;;;;;;11.76;81.86;99545.48;1722036;82;21077;-56
2021/09/20 08:52:53;;;;;;;0.72;0.72;;;;;;;11.65;82.24;99542.17;1719153;82;21175;-58
2021/09/20 08:55:19;;;;;;;0.60;0.30;;;;;;;11.72;82.23;99559.50;1715889;82;21057;-58
2021/09/20 08:57:47;;;;;;;0.50;0.50;;;;;;;11.79;82.09;99559.75;1685381;83;21144;-58
2021/09/20 09:00:14;;;;;;;1.27;0.53;;;;;;;11.86;82.21;99563.17;1685804;83;21169;-58
2021/09/20 09:02:41;;;;;;;2.70;0.60;;;;;;;11.93;81.89;99561.84;1686800;83;21741;-57
2021/09/20 09:05:21;;;;;;;1.02;0.75;;;;;;;11.98;81.79;99555.84;1669326;83;21025;-58
2021/09/20 09:07:55;;;;;;;1.02;0.47;;;;;;;11.99;81.47;99564.97;1666123;83;21036;-58
2021/09/20 09:10:27;;;;;;;0.60;0.40;;;;;;;11.99;81.10;99573.52;1691030;83;21149;-57
2021/09/20 09:12:55;;;;;;;0.70;0.57;;;;;;;12.06;81.22;99580.97;1664983;82;21046;-58
2021/09/20 09:15:24;;;;;;;0.93;0.47;;;;;;;12.14;81.43;99578.55;1657814;85;21138;-57
2021/09/20 09:17:56;;;;;;;0.93;0.30;;;;;;;12.16;80.86;99578.62;1624815;87;21059;-56
2021/09/20 09:20:26;;;;;;;1.67;0.45;;;;;;;12.13;80.69;99582.23;1654398;85;21050;-58
2021/09/20 09:23:10;;;;;;;0.40;0.20;;;;;;;12.07;80.49;99587.93;1623794;87;21026;-59
2021/09/20 09:25:46;;;;;;;2.15;2.05;;;;;;;12.09;80.91;99587.19;1654692;85;21014;-57
2021/09/20 09:28:24;;;;;;;0.85;0.80;;;;;;;12.13;81.15;99588.92;1653476;85;21122;-59
2021/09/20 09:31:02;;;;;;;0.57;0.40;;;;;;;12.19;81.01;99602.77;1623674;87;21648;-59
2021/09/20 09:33:41;;;;;;;0.30;0.30;;;;;;;12.19;80.35;99597.42;1653965;85;21089;-58
2021/09/20 09:36:10;;;;;;;0.70;0.70;;;;;;;12.14;80.98;99602.06;1690452;83;21138;-59
2021/09/20 09:38:41;;;;;;;0.40;0.30;;;;;;;12.21;80.64;99609.52;1696025;83;21026;-58
2021/09/20 09:41:07;;;;;;;0.40;0.15;;;;;;;12.36;80.06;99608.39;1688346;83;21229;-57
2021/09/20 09:43:37;;;;;;;0.20;0.20;;;;;;;12.45;77.73;99607.05;1691145;84;21103;-56
2021/09/20 09:46:20;;;;;;;0.20;0.20;;;;;;;12.48;77.64;99606.63;1684452;84;21091;-57
2021/09/20 09:48:50;;;;;;;0.37;0.37;;;;;;;12.14;78.02;99559.31;1665224;84;21544;-57
2021/09/20 09:51:18;;;;;;;0.60;0.20;;;;;;;12.52;77.87;99612.36;1683901;84;21423;-57
2021/09/20 09:53:49;;;;;;;0.30;0.30;;;;;;;12.50;76.74;99615.25;1677706;84;21102;-57
2021/09/20 09:56:25;;;;;;;1.50;0.25;;;;;;;12.56;77.52;99606.88;1681324;83;21804;-57
2021/09/20 09:59:02;;;;;;;0.78;0.30;;;;;;;12.64;77.83;99609.28;1702875;83;21050;-58
2021/09/20 10:01:39;;;;;;;1.00;0.25;;;;;;;12.75;77.63;99607.72;1687224;83;20982;-58
2021/09/20 10:04:15;;;;;;;0.53;0.40;;;;;;;12.79;76.04;99611.09;1636023;86;21149;-60
2021/09/20 10:06:47;;;;;;;0.72;0.25;;;;;;;12.82;76.38;99609.30;1632612;86;21001;-58
2021/09/20 10:09:18;;;;;;;0.95;0.28;;;;;;;12.90;75.49;99616.21;1636574;86;21147;-60
2021/09/20 10:11:48;;;;;;;0.20;0.20;;;;;;;12.95;75.22;99613.70;1630192;85;21682;-59
2021/09/20 10:14:17;;;;;;;0.30;0.20;;;;;;;12.91;75.83;99615.19;1648600;86;21030;-61
2021/09/20 10:16:47;;;;;;;0.10;0.10;;;;;;;12.77;75.05;99621.69;1645337;85;21561;-58
2021/09/20 10:19:17;;;;;;;0.75;0.20;;;;;;;12.64;75.39;99622.66;1641741;86;21030;-58
2021/09/20 10:21:43;;;;;;;0.30;0.10;;;;;;;12.60;75.73;99617.42;1650904;85;21169;-58
2021/09/20 10:24:11;;;;;;;0.30;0.30;;;;;;;12.64;75.76;99632.82;1617806;84;21897;-58
2021/09/20 10:26:38;;;;;;;0.10;0.10;;;;;;;12.65;75.37;99633.10;1574885;89;21676;-58
2021/09/20 10:29:09;;;;;;;1.00;0.10;;;;;;;12.59;75.30;99635.33;1601997;87;21602;-59
2021/09/20 10:31:36;;;;;;;1.57;0.30;;;;;;;12.52;75.71;99644.44;1576886;88;21125;-58
2021/09/20 10:34:24;;;;;;;0.20;0.20;;;;;;;12.50;76.01;99643.31;1610601;86;21078;-58
2021/09/20 10:37:04;;;;;;;0.10;0.10;;;;;;;12.58;76.25;99651.58;1630885;86;21083;-58
2021/09/20 10:39:55;;;;;;;0.30;0.15;;;;;;;12.64;75.65;99656.89;1627264;86;21078;-58
2021/09/20 10:42:48;;;;;;;0.30;0.20;;;;;;;12.60;75.54;99657.03;1663464;84;21040;-59
2021/09/20 10:45:56;;;;;;;0.20;0.10;;;;;;;12.51;75.85;99652.98;1670298;82;21072;-59
2021/09/20 10:48:34;;;;;;;0.20;0.10;;;;;;;12.45;75.73;99653.83;1681587;83;21136;-59
2021/09/20 10:51:24;;;;;;;0.28;0.10;;;;;;;12.36;75.82;99649.81;1679648;84;21048;-59
2021/09/20 10:54:22;;;;;;;0.30;0.10;;;;;;;12.46;75.55;99666.17;1689021;83;21103;-59
2021/09/20 10:56:55;;;;;;;0.10;0.10;;;;;;;12.42;75.13;99662.30;1675348;81;21013;-59
2021/09/20 10:59:29;;;;;;;1.95;0.10;;;;;;;12.32;75.47;99669.47;1655501;85;21017;-58
2021/09/20 11:01:59;;;;;;;0.40;0.30;;;;;;;12.30;76.04;99664.86;1669491;83;21574;-58
2021/09/20 11:04:33;;;;;;;0.10;0.10;;;;;;;12.31;75.84;99669.67;1676433;83;21669;-59
2021/09/20 11:07:17;;;;;;;0.30;0.30;;;;;;;12.35;75.68;99666.88;1629845;85;21101;-58
2021/09/20 11:09:55;;;;;;;0.40;0.30;;;;;;;12.35;75.58;99669.02;1638758;85;21356;-59
2021/09/20 11:12:25;;;;;;;0.62;0.60;;;;;;;12.26;75.88;99660.46;1621400;85;21017;-58
2021/09/20 11:15:04;;;;;;;1.95;0.40;;;;;;;12.26;76.19;99683.67;1639530;85;21543;-58
2021/09/20 11:17:41;;;;;;;1.17;0.30;;;;;;;12.20;76.58;99681.34;1617038;85;22004;-59
2021/09/20 11:20:24;;;;;;;1.87;0.42;;;;;;;12.21;76.58;99684.33;1693386;83;21609;-59
2021/09/20 11:23:11;;;;;;;0.75;0.60;;;;;;;12.30;76.48;99682.23;1672725;82;21021;-57
2021/09/20 11:25:38;;;;;;;0.40;0.40;;;;;;;12.36;76.32;99681.36;1685647;83;21620;-58
2021/09/20 11:28:04;;;;;;;0.50;0.50;;;;;;;12.37;76.20;99688.33;1684370;83;21711;-60
2021/09/20 11:30:30;;;;;;;0.35;0.35;;;;;;;12.33;76.12;99692.99;1619515;87;21367;-57
2021/09/20 11:33:07;;;;;;;3.20;0.50;;;;;;;12.26;76.09;99687.67;1609650;87;21116;-58
2021/09/20 11:35:32;;;;;;;0.28;0.28;;;;;;;12.26;74.91;99694.36;1653138;84;21097;-62
2021/09/20 11:38:11;;;;;;;1.80;0.30;;;;;;;12.30;74.90;99694.75;1673457;83;21006;-57
2021/09/20 11:40:33;;;;;;;0.50;0.42;;;;;;;12.32;75.06;99696.19;1669836;83;21200;-57
2021/09/20 11:43:06;;;;;;;0.35;0.30;;;;;;;12.30;75.37;99697.42;1681962;83;22535;-58
2021/09/20 11:45:38;;;;;;;0.70;0.55;;;;;;;12.30;75.69;99696.09;1683499;83;21212;-59
2021/09/20 11:48:08;;;;;;;1.95;0.40;;;;;;;12.35;75.46;99703.76;1683866;83;21061;-59